Time;durP1;ratioP1;P1;durP2;ratioP2;P2;SDS_P1;SDS_P2;PMS_P1;PMS_P2;Temp;Humidity;BMP_temperature;BMP_pressure;BME280_temperature;BME280_humidity;BME280_pressure;Samples;Min_cycle;Max_cycle;Signal;HPM_P1;HPM_P2
2022/12/06 00:00:44;;;;;;;10.82;8.48;;;;;;;6.19;81.82;101962.66;5042115;28;20024;-61
2022/12/06 00:03:09;;;;;;;10.10;8.65;;;;;;;6.20;81.33;101961.59;5049713;28;20503;-61
2022/12/06 00:05:34;;;;;;;9.35;8.30;;;;;;;6.19;80.62;101965.41;5035957;28;20040;-61
2022/12/06 00:08:00;;;;;;;9.65;8.55;;;;;;;6.19;80.95;101962.66;5045738;28;20104;-61
2022/12/06 00:10:25;;;;;;;11.13;8.85;;;;;;;6.20;81.24;101964.34;5030834;28;20029;-61
2022/12/06 00:12:51;;;;;;;9.57;8.60;;;;;;;6.18;81.23;101961.81;5036924;28;20408;-61
2022/12/06 00:15:16;;;;;;;9.77;8.07;;;;;;;6.19;81.31;101962.66;5027760;28;20116;-61
2022/12/06 00:17:41;;;;;;;8.93;8.02;;;;;;;6.21;81.38;101964.19;5029092;28;20022;-60
2022/12/06 00:20:07;;;;;;;9.35;8.13;;;;;;;6.20;81.34;101967.97;5027371;28;20029;-60
2022/12/06 00:22:32;;;;;;;10.52;8.43;;;;;;;6.20;80.76;101962.44;5030051;28;20041;-60
2022/12/06 00:24:58;;;;;;;9.35;8.15;;;;;;;6.19;81.46;101958.00;5035328;28;20036;-61
2022/12/06 00:27:23;;;;;;;9.63;8.60;;;;;;;6.24;80.87;101965.66;5035456;28;20033;-61
2022/12/06 00:29:48;;;;;;;9.93;8.90;;;;;;;6.23;81.43;101964.81;5042456;28;20564;-61
2022/12/06 00:32:14;;;;;;;9.18;8.27;;;;;;;6.22;81.32;101963.13;5047997;28;20083;-61
2022/12/06 00:34:39;;;;;;;9.48;8.00;;;;;;;6.23;80.88;101958.47;5026176;28;20025;-61
2022/12/06 00:37:04;;;;;;;9.30;8.43;;;;;;;6.23;81.11;101952.94;5035260;28;20073;-61
2022/12/06 00:39:30;;;;;;;10.13;8.73;;;;;;;6.24;80.85;101960.16;5030843;28;20393;-61
2022/12/06 00:41:55;;;;;;;9.85;8.85;;;;;;;6.24;81.05;101960.16;5036317;28;20034;-61
2022/12/06 00:44:21;;;;;;;10.27;8.65;;;;;;;6.24;80.83;101963.75;5041397;28;20024;-61
2022/12/06 00:46:46;;;;;;;9.18;8.27;;;;;;;6.24;80.97;101957.41;5047040;28;20033;-61
2022/12/06 00:49:11;;;;;;;8.93;8.00;;;;;;;6.24;80.67;101954.63;5032034;28;20124;-61
2022/12/06 00:51:37;;;;;;;9.15;7.63;;;;;;;6.23;81.10;101961.22;5027280;28;20120;-61
2022/12/06 00:54:03;;;;;;;8.32;7.53;;;;;;;6.25;81.00;101961.84;5031728;28;20036;-64
2022/12/06 00:56:30;;;;;;;9.50;8.45;;;;;;;6.23;80.88;101963.97;5036493;28;20231;-61
2022/12/06 00:58:55;;;;;;;8.98;8.15;;;;;;;6.26;80.47;101963.59;5044576;28;20021;-61
2022/12/06 01:01:23;;;;;;;8.90;8.00;;;;;;;6.24;81.19;101961.00;5028489;28;20461;-61
2022/12/06 01:03:51;;;;;;;9.02;7.78;;;;;;;6.25;80.36;101967.38;5038622;28;20068;-61
2022/12/06 01:06:18;;;;;;;8.82;7.93;;;;;;;6.23;80.49;101956.56;5049816;28;20025;-61
2022/12/06 01:08:43;;;;;;;9.40;8.27;;;;;;;6.24;81.42;101969.28;5039051;28;20039;-61
2022/12/06 01:11:10;;;;;;;8.55;7.75;;;;;;;6.25;80.56;101967.38;5041894;28;20026;-61
2022/12/06 01:13:36;;;;;;;8.65;7.75;;;;;;;6.25;80.89;101964.63;5043609;28;20365;-61
2022/12/06 01:16:13;;;;;;;8.68;7.75;;;;;;;6.25;80.73;101957.22;5031091;28;20075;-61
2022/12/06 01:18:39;;;;;;;8.50;7.57;;;;;;;6.27;81.10;101962.53;5028571;28;20059;-61
2022/12/06 01:21:07;;;;;;;9.05;8.15;;;;;;;6.26;81.12;101961.69;5032281;28;20025;-61
2022/12/06 01:23:33;;;;;;;10.13;7.80;;;;;;;6.27;81.00;101966.13;5045099;28;20033;-61
2022/12/06 01:25:58;;;;;;;8.13;7.32;;;;;;;6.24;81.44;101961.00;5036325;28;20028;-61
2022/12/06 01:28:23;;;;;;;8.85;7.95;;;;;;;6.29;80.50;101968.72;5036018;28;20040;-61
2022/12/06 01:30:48;;;;;;;8.95;7.55;;;;;;;6.26;81.46;101958.06;5035314;28;20838;-61
2022/12/06 01:33:14;;;;;;;8.65;7.80;;;;;;;6.27;81.49;101970.78;5045081;28;20477;-61
2022/12/06 01:35:40;;;;;;;7.72;6.97;;;;;;;6.30;81.16;101959.38;5023196;28;20057;-61
2022/12/06 01:38:06;;;;;;;8.40;7.60;;;;;;;6.28;81.60;101967.81;5037199;28;20037;-62
2022/12/06 01:40:37;;;;;;;8.43;7.30;;;;;;;6.27;81.22;101974.41;5036930;28;20107;-61
2022/12/06 01:43:03;;;;;;;9.20;7.05;;;;;;;6.27;81.04;101970.78;5043546;28;20091;-61
2022/12/06 01:45:28;;;;;;;8.10;7.20;;;;;;;6.29;80.73;101964.03;5031205;28;20033;-61
2022/12/06 01:47:53;;;;;;;8.35;7.43;;;;;;;6.26;81.45;101958.06;5032069;28;20108;-61
2022/12/06 01:50:26;;;;;;;8.90;7.25;;;;;;;6.27;81.38;101955.09;5040855;28;20412;-61
2022/12/06 01:52:57;;;;;;;9.13;7.50;;;;;;;6.30;81.16;101960.22;5038962;28;20032;-61
2022/12/06 01:55:27;;;;;;;9.07;7.38;;;;;;;6.28;81.55;101956.81;5040838;28;20379;-61
2022/12/06 01:57:58;;;;;;;8.52;7.63;;;;;;;6.28;81.24;101953.19;5047720;28;20070;-61
2022/12/06 02:00:23;;;;;;;8.52;6.78;;;;;;;6.30;81.08;101956.63;5030429;28;20533;-61
2022/12/06 02:02:48;;;;;;;9.55;7.57;;;;;;;6.30;81.32;101953.88;5037961;28;20040;-61
2022/12/06 02:05:19;;;;;;;7.63;6.82;;;;;;;6.30;81.13;101960.22;5041780;28;20136;-61
2022/12/06 02:07:45;;;;;;;8.00;7.18;;;;;;;6.28;80.96;101958.72;5031704;28;20037;-61
2022/12/06 02:10:11;;;;;;;8.30;7.07;;;;;;;6.29;81.35;101955.78;5035643;28;20088;-61
2022/12/06 02:12:37;;;;;;;10.25;7.18;;;;;;;6.31;81.43;101961.06;5046891;28;20025;-61
2022/12/06 02:15:02;;;;;;;8.43;7.20;;;;;;;6.31;81.10;101950.03;5026838;28;20034;-62
2022/12/06 02:17:52;;;;;;;9.60;7.32;;;;;;;6.34;81.22;101946.91;5044332;28;20029;-62
2022/12/06 02:20:35;;;;;;;8.43;7.00;;;;;;;6.35;81.30;101951.34;5033529;28;20034;-62
2022/12/06 02:23:22;;;;;;;8.52;6.97;;;;;;;6.34;80.75;101952.41;5043557;28;20440;-62
2022/12/06 02:26:11;;;;;;;9.45;6.82;;;;;;;6.34;80.80;101952.41;5032085;28;20489;-62
2022/12/06 02:29:25;;;;;;;6.97;6.28;;;;;;;6.36;80.63;101942.03;5034638;28;20040;-62
2022/12/06 02:32:12;;;;;;;6.68;5.97;;;;;;;6.32;80.86;101944.31;5036503;28;20038;-62
2022/12/06 02:34:46;;;;;;;7.43;6.60;;;;;;;6.33;80.09;101942.44;5020804;28;20751;-62
2022/12/06 02:37:40;;;;;;;8.27;6.60;;;;;;;6.32;80.89;101940.72;5031660;28;20034;-62
2022/12/06 02:40:09;;;;;;;7.10;6.28;;;;;;;6.32;79.89;101947.06;5033751;28;20504;-62
2022/12/06 02:42:46;;;;;;;7.82;6.03;;;;;;;6.35;80.40;101940.31;5046597;28;20146;-62
2022/12/06 02:45:17;;;;;;;8.18;6.68;;;;;;;6.32;80.08;101937.97;5040237;28;20139;-62
2022/12/06 02:47:45;;;;;;;7.47;6.28;;;;;;;6.32;80.63;101932.44;5036269;28;20107;-62
2022/12/06 02:50:15;;;;;;;7.38;6.30;;;;;;;6.32;80.42;101938.81;5047050;28;20029;-62
2022/12/06 02:52:43;;;;;;;9.63;6.63;;;;;;;6.32;80.60;101936.06;5030376;28;20481;-62
2022/12/06 02:55:10;;;;;;;8.50;6.45;;;;;;;6.31;80.08;101936.25;5030731;28;20094;-62
2022/12/06 02:57:42;;;;;;;8.25;6.35;;;;;;;6.32;80.12;101936.06;5030185;28;20036;-62
2022/12/06 03:00:32;;;;;;;8.07;6.65;;;;;;;6.37;80.36;101932.72;5030755;28;20400;-62
2022/12/06 03:03:19;;;;;;;6.88;6.18;;;;;;;6.34;79.92;101935.88;5042460;28;20041;-62
2022/12/06 03:06:00;;;;;;;6.63;5.80;;;;;;;6.36;80.53;101933.75;5030633;28;20056;-62
2022/12/06 03:09:03;;;;;;;7.82;5.88;;;;;;;6.37;80.18;101927.22;5030172;28;20038;-62
2022/12/06 03:11:54;;;;;;;7.22;6.35;;;;;;;6.37;79.87;101933.56;5031107;28;20069;-62
2022/12/06 03:14:25;;;;;;;8.95;7.10;;;;;;;6.34;79.72;101936.72;5028987;28;20575;-62
2022/12/06 03:17:07;;;;;;;8.50;6.53;;;;;;;6.36;79.81;101936.50;5019156;28;20032;-62
2022/12/06 03:19:37;;;;;;;9.13;6.50;;;;;;;6.34;80.18;101931.22;5024272;28;20036;-62
2022/12/06 03:22:06;;;;;;;8.52;6.80;;;;;;;6.34;79.70;101939.47;5013781;28;20485;-62
2022/12/06 03:24:35;;;;;;;7.50;6.30;;;;;;;6.37;79.82;101932.72;5021114;28;20052;-62
2022/12/06 03:27:06;;;;;;;8.60;6.75;;;;;;;6.37;80.49;101941.00;5029281;28;20029;-62
2022/12/06 03:29:36;;;;;;;9.02;7.07;;;;;;;6.34;79.90;101944.16;5029892;28;20030;-62
2022/12/06 03:32:05;;;;;;;11.63;7.50;;;;;;;6.33;79.93;101940.53;5030412;28;20029;-62
2022/12/06 03:34:36;;;;;;;9.15;7.15;;;;;;;6.33;79.78;101947.97;5028376;28;20080;-62
2022/12/06 03:37:04;;;;;;;8.90;7.15;;;;;;;6.33;79.91;101939.69;5023134;28;20033;-62
2022/12/06 03:40:29;;;;;;;8.80;6.55;;;;;;;6.39;80.61;101942.47;5027666;28;20489;-62
2022/12/06 03:42:55;;;;;;;11.70;7.20;;;;;;;6.34;80.03;101939.47;4986803;28;20042;-62
2022/12/06 03:45:23;;;;;;;10.40;6.88;;;;;;;6.35;80.20;101937.56;4985863;28;20042;-62
2022/12/06 03:48:12;;;;;;;10.30;6.88;;;;;;;6.39;80.54;101939.72;5008200;28;20045;-62
2022/12/06 03:50:43;;;;;;;8.15;7.22;;;;;;;6.36;80.02;101933.75;5029501;28;20052;-62
2022/12/06 03:53:09;;;;;;;9.98;6.93;;;;;;;6.37;80.10;101927.22;5030035;28;20111;-62
2022/12/06 03:55:35;;;;;;;9.52;6.80;;;;;;;6.36;79.64;101933.75;5011238;28;20034;-62
2022/12/06 03:58:00;;;;;;;9.73;7.10;;;;;;;6.35;80.22;101940.31;5010615;28;20485;-62
2022/12/06 04:00:25;;;;;;;10.40;7.68;;;;;;;6.37;79.77;101938.25;5015231;28;20021;-62
2022/12/06 04:02:51;;;;;;;11.45;7.55;;;;;;;6.36;80.56;101936.50;5029931;28;20061;-62
2022/12/06 04:05:17;;;;;;;12.48;8.23;;;;;;;6.39;79.74;101947.16;5029201;28;20116;-63
2022/12/06 04:07:42;;;;;;;11.93;7.32;;;;;;;6.39;80.11;101936.13;5029466;28;20033;-62
2022/12/06 04:10:08;;;;;;;13.73;8.00;;;;;;;6.38;80.28;101931.66;5020935;28;20547;-62
2022/12/06 04:15:19;;;;;;;17.65;8.07;;;;;;;6.35;80.25;101935.66;5030010;28;20462;-62
2022/12/06 04:23:02;;;;;;;12.82;7.78;;;;;;;6.37;79.70;101936.34;5026213;28;20163;-62
2022/12/06 04:23:16;;;;;;;12.73;7.97;;;;;;;6.37;80.31;101932.72;5024631;28;20182;-62
2022/12/06 04:25:41;;;;;;;10.80;7.97;;;;;;;6.37;80.14;101927.22;5028606;28;20392;-62
2022/12/06 04:39:02;;;;;;;12.05;8.40;;;;;;;6.42;80.36;101937.63;5028185;28;20165;-62
2022/12/06 04:44:11;;;;;;;18.00;9.00;;;;;;;6.41;80.13;101939.53;5030010;28;20048;-62
2022/12/06 04:46:37;;;;;;;12.25;8.30;;;;;;;6.41;79.97;101947.81;5024463;28;20038;-62
2022/12/06 04:49:02;;;;;;;12.27;8.65;;;;;;;6.39;80.68;101936.13;5027592;28;20465;-60
2022/12/06 04:51:27;;;;;;;17.02;8.60;;;;;;;6.40;80.22;101940.56;5027465;28;20036;-60
2022/12/06 04:53:53;;;;;;;11.48;8.70;;;;;;;6.41;80.10;101936.78;5028741;28;20366;-61
2022/12/06 04:56:18;;;;;;;14.25;8.70;;;;;;;6.40;80.13;101940.56;5029107;28;20021;-60
2022/12/06 04:58:44;;;;;;;15.77;8.93;;;;;;;6.38;80.27;101935.28;5027419;28;20818;-61
2022/12/06 05:01:09;;;;;;;15.75;8.90;;;;;;;6.43;80.02;101933.81;5029805;28;20037;-61
2022/12/06 05:03:35;;;;;;;11.57;8.50;;;;;;;6.42;79.88;101935.72;5029106;28;20132;-61
2022/12/06 05:06:00;;;;;;;12.95;8.52;;;;;;;6.41;80.19;101934.03;5016582;28;20111;-61
2022/12/06 05:08:26;;;;;;;13.43;8.43;;;;;;;6.43;80.03;101931.91;5029745;28;20049;-61
2022/12/06 05:10:51;;;;;;;15.20;8.57;;;;;;;6.41;80.10;101928.50;5027801;28;20030;-61
2022/12/06 05:13:17;;;;;;;14.25;8.90;;;;;;;6.37;80.26;101928.06;5027387;28;20080;-61
2022/12/06 05:15:51;;;;;;;13.77;8.43;;;;;;;6.37;80.38;101928.06;5026377;28;20030;-61
2022/12/06 05:18:16;;;;;;;15.65;8.00;;;;;;;6.38;80.48;101926.16;5029716;28;20029;-61
2022/12/06 05:20:41;;;;;;;14.27;7.72;;;;;;;6.38;79.80;101921.47;5023973;28;20033;-61
2022/12/06 05:23:07;;;;;;;15.55;7.53;;;;;;;6.37;80.07;101922.53;5026233;28;20076;-61
2022/12/06 05:25:32;;;;;;;12.38;7.85;;;;;;;6.39;80.25;101927.84;5028864;28;20461;-61
2022/12/06 05:27:57;;;;;;;14.50;7.68;;;;;;;6.39;79.41;101928.69;5027207;28;20067;-61
2022/12/06 05:30:23;;;;;;;13.57;7.85;;;;;;;6.41;79.98;101931.28;5026237;28;20037;-60
2022/12/06 05:32:48;;;;;;;13.93;8.38;;;;;;;6.43;79.79;101931.06;5028406;28;20037;-61
2022/12/06 05:35:13;;;;;;;14.00;7.63;;;;;;;6.43;79.99;101926.41;5027178;28;20055;-61
2022/12/06 05:37:38;;;;;;;12.23;8.25;;;;;;;6.43;79.38;101925.53;5020335;28;20034;-61
2022/12/06 05:40:04;;;;;;;11.02;8.23;;;;;;;6.39;79.68;101925.94;5038760;28;20473;-61
2022/12/06 05:42:30;;;;;;;10.57;7.53;;;;;;;6.35;79.86;101918.25;5040860;28;20065;-61
2022/12/06 05:44:55;;;;;;;13.38;8.13;;;;;;;6.39;79.86;101930.59;5030074;28;20090;-61
2022/12/06 05:47:20;;;;;;;15.02;8.50;;;;;;;6.39;79.85;101930.59;5032607;28;20037;-61
2022/12/06 05:49:45;;;;;;;9.68;7.20;;;;;;;6.42;79.64;101934.88;5030930;28;20045;-61
2022/12/06 05:52:11;;;;;;;11.13;7.55;;;;;;;6.37;80.15;101928.06;5030924;28;20056;-61
2022/12/06 05:54:36;;;;;;;12.82;6.88;;;;;;;6.39;79.55;101925.09;5032806;28;20037;-60
2022/12/06 05:57:01;;;;;;;15.07;7.75;;;;;;;6.39;79.36;101930.59;5031149;28;20034;-61
2022/12/06 05:59:26;;;;;;;11.23;7.65;;;;;;;6.37;79.36;101929.97;5023061;28;20037;-61
2022/12/06 06:01:52;;;;;;;11.75;7.07;;;;;;;6.40;79.73;101932.31;5020163;28;20060;-61
2022/12/06 06:04:17;;;;;;;15.98;7.35;;;;;;;6.41;79.44;101934.03;5032546;28;20119;-61
2022/12/06 06:06:42;;;;;;;15.35;7.28;;;;;;;6.41;79.17;101933.19;5025624;28;20040;-61
2022/12/06 06:09:07;;;;;;;11.00;6.90;;;;;;;6.37;78.79;101927.22;5032298;28;20036;-61
2022/12/06 06:11:33;;;;;;;12.55;6.75;;;;;;;6.37;79.31;101930.81;5029749;28;20030;-61
2022/12/06 06:13:58;;;;;;;11.35;6.70;;;;;;;6.38;79.51;101934.41;5021494;28;20044;-61
2022/12/06 06:16:23;;;;;;;12.05;6.68;;;;;;;6.38;79.77;101931.66;5024708;28;20072;-61
2022/12/06 06:18:49;;;;;;;12.05;7.13;;;;;;;6.38;79.56;101934.41;5018977;28;20044;-60
2022/12/06 06:21:14;;;;;;;13.32;7.85;;;;;;;6.39;79.25;101936.13;5024895;28;20114;-61
2022/12/06 06:23:39;;;;;;;12.30;7.80;;;;;;;6.35;79.04;101937.56;5029703;28;20033;-61
2022/12/06 06:26:10;;;;;;;10.98;7.15;;;;;;;6.35;79.77;101935.66;5028907;28;20028;-62
2022/12/06 06:28:36;;;;;;;11.43;7.05;;;;;;;6.33;79.57;101940.53;5030272;28;20444;-62
2022/12/06 06:31:02;;;;;;;11.23;6.88;;;;;;;6.34;79.10;101930.34;5033765;28;20033;-63
2022/12/06 06:33:28;;;;;;;13.48;6.88;;;;;;;6.35;79.11;101932.06;5030385;28;20044;-61
2022/12/06 06:35:53;;;;;;;11.15;6.50;;;;;;;6.33;78.87;101932.25;5013097;28;20412;-62
2022/12/06 06:38:18;;;;;;;9.82;6.55;;;;;;;6.33;79.38;101934.19;5032503;28;20048;-61
2022/12/06 06:40:44;;;;;;;11.50;6.70;;;;;;;6.32;79.09;101929.69;5026174;28;20603;-62
2022/12/06 06:43:24;;;;;;;10.55;7.18;;;;;;;6.32;78.78;101925.03;5031539;28;20037;-60
2022/12/06 06:45:55;;;;;;;12.75;6.78;;;;;;;6.32;79.32;101929.69;5030613;28;20043;-61
2022/12/06 06:48:22;;;;;;;10.45;6.63;;;;;;;6.31;79.17;101937.09;5027572;28;20025;-61
2022/12/06 06:50:48;;;;;;;10.27;7.20;;;;;;;6.29;78.76;101930.97;5027954;28;20045;-61
2022/12/06 06:53:13;;;;;;;10.65;7.55;;;;;;;6.30;78.47;101923.53;5023349;28;20107;-63
2022/12/06 06:55:39;;;;;;;17.63;7.93;;;;;;;6.28;79.09;101922.88;5030763;28;20095;-62
2022/12/06 06:58:05;;;;;;;12.15;7.88;;;;;;;6.29;78.38;101919.94;5031474;28;20065;-62
2022/12/06 07:00:31;;;;;;;12.20;7.82;;;;;;;6.25;78.99;101913.09;5030443;28;20029;-63
2022/12/06 07:02:56;;;;;;;11.57;7.75;;;;;;;6.26;78.36;101919.47;5029953;28;20115;-62
2022/12/06 07:05:22;;;;;;;11.95;6.85;;;;;;;6.24;78.33;101919.66;5029700;28;20030;-61
2022/12/06 07:07:56;;;;;;;12.82;6.93;;;;;;;6.25;78.67;101923.25;5024607;28;20099;-61
2022/12/06 07:10:24;;;;;;;10.77;7.20;;;;;;;6.23;78.50;101925.38;5030044;28;20046;-61
2022/12/06 07:12:49;;;;;;;10.35;7.70;;;;;;;6.19;77.69;101929.56;5028574;28;20310;-61
2022/12/06 07:15:17;;;;;;;13.40;7.78;;;;;;;6.15;78.28;101935.47;5023570;28;20025;-61
2022/12/06 07:17:42;;;;;;;11.18;7.28;;;;;;;6.18;78.28;101933.41;5024733;28;20570;-62
2022/12/06 07:20:08;;;;;;;11.10;7.20;;;;;;;6.13;78.13;101931.19;5019453;28;20039;-61
2022/12/06 07:22:33;;;;;;;12.18;7.43;;;;;;;6.11;77.90;101936.94;5026656;28;20370;-61
2022/12/06 07:24:58;;;;;;;10.00;7.28;;;;;;;6.15;78.10;101937.38;5025254;28;20025;-62
2022/12/06 07:27:42;;;;;;;12.88;7.60;;;;;;;6.11;77.29;101931.41;5026888;28;20065;-62
2022/12/06 07:30:07;;;;;;;10.50;6.88;;;;;;;6.12;77.50;101938.63;5025243;28;20155;-61
2022/12/06 07:32:35;;;;;;;10.98;7.07;;;;;;;6.10;78.56;101940.75;5028569;28;20428;-62
2022/12/06 07:35:01;;;;;;;9.13;6.28;;;;;;;6.06;78.05;101939.44;5030150;28;20112;-62
2022/12/06 07:37:26;;;;;;;10.13;6.72;;;;;;;6.06;77.94;101933.06;5028028;28;20129;-62
2022/12/06 07:39:51;;;;;;;10.35;6.95;;;;;;;6.08;77.82;101937.31;5027318;28;20044;-63
2022/12/06 07:45:00;;;;;;;11.68;7.07;;;;;;;6.09;78.66;101943.69;5029837;28;20052;-63
2022/12/06 07:47:31;;;;;;;9.60;6.53;;;;;;;6.06;78.03;101939.44;5024788;28;20021;-62
2022/12/06 07:49:56;;;;;;;12.50;6.70;;;;;;;6.06;78.13;101942.19;5028655;28;20363;-61
2022/12/06 07:52:22;;;;;;;11.13;6.65;;;;;;;6.08;78.33;101953.00;5025881;28;20044;-63
2022/12/06 07:54:47;;;;;;;8.27;6.43;;;;;;;6.06;78.61;101947.69;5037532;28;20029;-62
2022/12/06 07:57:13;;;;;;;10.63;6.03;;;;;;;6.09;78.43;101952.81;5023661;28;20035;-62
2022/12/06 07:59:38;;;;;;;10.30;6.53;;;;;;;6.11;79.52;101958.97;5029233;28;20056;-62
2022/12/06 08:02:03;;;;;;;8.85;6.28;;;;;;;6.11;78.50;101949.84;5025542;28;20155;-62
2022/12/06 08:04:29;;;;;;;10.32;6.07;;;;;;;6.12;78.24;101954.31;5020467;28;20053;-62
2022/12/06 08:06:55;;;;;;;11.00;6.40;;;;;;;6.11;78.26;101956.22;5028709;28;20036;-62
2022/12/06 08:09:21;;;;;;;11.60;6.28;;;;;;;6.10;78.33;101962.78;5027210;28;20037;-61
2022/12/06 08:11:46;;;;;;;8.30;6.00;;;;;;;6.11;78.10;101960.88;5026191;28;20080;-65
2022/12/06 08:14:11;;;;;;;8.50;5.95;;;;;;;6.09;78.49;101962.97;5033521;28;20037;-63
2022/12/06 08:16:39;;;;;;;9.48;6.63;;;;;;;6.11;78.53;101963.66;5038980;28;20039;-61
2022/12/06 08:19:04;;;;;;;10.25;6.13;;;;;;;6.10;77.80;101960.03;5027208;28;20091;-62
2022/12/06 08:21:30;;;;;;;9.90;6.05;;;;;;;6.12;77.86;101957.91;5027879;28;20029;-62
2022/12/06 08:23:55;;;;;;;10.93;5.90;;;;;;;6.13;78.40;101956.00;5027920;28;20503;-62
2022/12/06 08:26:21;;;;;;;11.18;6.40;;;;;;;6.13;78.26;101965.16;5022740;28;20102;-63
2022/12/06 08:28:47;;;;;;;12.85;7.00;;;;;;;6.10;78.44;101960.03;5044822;28;20123;-63
2022/12/06 08:31:18;;;;;;;10.70;6.05;;;;;;;6.11;78.40;101960.88;5029878;28;20104;-63
2022/12/06 08:33:43;;;;;;;9.98;6.35;;;;;;;6.11;78.29;101967.25;5016452;28;20036;-62
2022/12/06 08:36:12;;;;;;;7.95;6.20;;;;;;;6.14;77.99;101961.34;5019755;28;20045;-62
2022/12/06 08:38:38;;;;;;;8.95;6.28;;;;;;;6.13;78.17;101961.53;5019789;28;20492;-62
2022/12/06 08:41:05;;;;;;;12.27;6.57;;;;;;;6.12;78.10;101965.34;5028385;28;20029;-62
2022/12/06 08:43:31;;;;;;;10.38;6.50;;;;;;;6.10;78.39;101965.56;5029442;28;20183;-63
2022/12/06 08:45:56;;;;;;;9.50;5.93;;;;;;;6.12;78.15;101966.19;5029425;28;20533;-61
2022/12/06 08:48:21;;;;;;;11.38;6.15;;;;;;;6.10;78.16;101968.31;5025371;28;20500;-62
2022/12/06 08:50:47;;;;;;;8.07;4.78;;;;;;;6.10;78.06;101962.78;5028446;28;20484;-62
2022/12/06 08:53:12;;;;;;;9.07;5.78;;;;;;;6.08;77.93;101959.38;5028829;28;20087;-61
2022/12/06 08:55:38;;;;;;;7.93;5.82;;;;;;;6.08;77.81;101970.38;5028396;28;20480;-65
2022/12/06 08:58:03;;;;;;;9.73;6.07;;;;;;;6.07;77.69;101965.94;5029145;28;20064;-61
2022/12/06 09:00:28;;;;;;;10.07;6.53;;;;;;;6.05;77.61;101968.06;5028800;28;20404;-61
2022/12/06 09:02:54;;;;;;;10.32;6.00;;;;;;;6.08;77.66;101975.91;5027106;28;20154;-61
2022/12/06 09:05:19;;;;;;;9.75;5.68;;;;;;;6.04;77.60;101971.84;5029010;28;20033;-61
2022/12/06 09:07:44;;;;;;;7.88;5.32;;;;;;;6.03;77.10;101975.66;5014818;28;20034;-62
2022/12/06 09:10:10;;;;;;;8.55;5.80;;;;;;;6.04;77.79;101979.25;5011014;28;20037;-61
2022/12/06 09:12:35;;;;;;;8.93;6.75;;;;;;;6.05;78.20;101970.81;5028548;28;20966;-62
2022/12/06 09:15:00;;;;;;;8.90;6.63;;;;;;;6.10;78.15;101984.00;5030808;28;20034;-62
2022/12/06 09:17:26;;;;;;;10.48;6.05;;;;;;;6.12;78.07;101974.47;5012758;28;20030;-62
2022/12/06 09:19:51;;;;;;;7.20;5.75;;;;;;;6.15;77.97;101982.34;5013185;28;20034;-62
2022/12/06 09:22:16;;;;;;;10.23;6.32;;;;;;;6.19;78.06;101990.22;5012212;28;20096;-62
2022/12/06 09:24:42;;;;;;;8.45;6.38;;;;;;;6.22;78.14;101987.94;5015385;28;20393;-62
2022/12/06 09:27:07;;;;;;;8.88;6.38;;;;;;;6.32;78.84;101984.84;5024089;28;20041;-62
2022/12/06 09:29:34;;;;;;;10.95;6.18;;;;;;;6.39;78.63;101986.59;5031251;28;20068;-62
2022/12/06 09:31:59;;;;;;;12.48;6.38;;;;;;;6.51;78.01;101988.84;5032324;28;20022;-62
2022/12/06 09:34:25;;;;;;;8.38;5.75;;;;;;;6.61;78.11;101976.41;5032204;28;20140;-62
2022/12/06 09:37:04;;;;;;;7.05;6.00;;;;;;;6.73;77.54;101984.16;5029484;28;20057;-62
2022/12/06 09:39:43;;;;;;;7.07;5.07;;;;;;;6.81;77.52;101982.09;5031946;28;20167;-62
2022/12/06 09:42:21;;;;;;;12.00;5.35;;;;;;;6.88;77.07;101985.75;5031618;28;20025;-62
2022/12/06 09:44:50;;;;;;;8.70;5.70;;;;;;;6.95;77.16;101980.25;5025674;28;20133;-62
2022/12/06 09:47:34;;;;;;;7.60;5.65;;;;;;;7.06;77.86;101982.47;5031168;28;20029;-62
2022/12/06 09:50:25;;;;;;;10.10;5.35;;;;;;;7.22;76.42;101985.97;5031771;28;20037;-62
2022/12/06 09:53:27;;;;;;;6.97;5.15;;;;;;;7.36;76.08;101979.47;5032754;28;20037;-62
2022/12/06 09:56:15;;;;;;;8.30;4.95;;;;;;;7.55;75.68;101984.25;5029307;28;20025;-62
2022/12/06 09:59:13;;;;;;;8.50;5.10;;;;;;;7.62;75.21;101987.91;5031779;28;20030;-62
2022/12/06 10:02:00;;;;;;;11.10;5.13;;;;;;;7.75;75.08;101989.00;5017320;28;20576;-61
2022/12/06 10:04:38;;;;;;;8.20;5.00;;;;;;;7.79;74.22;101985.63;5011197;28;20050;-62
2022/12/06 10:07:32;;;;;;;8.27;5.70;;;;;;;7.88;74.18;101978.84;5011987;28;20036;-62
2022/12/06 10:10:20;;;;;;;8.18;5.15;;;;;;;7.99;74.02;101982.06;5012057;28;20065;-62
2022/12/06 10:12:57;;;;;;;9.45;5.18;;;;;;;7.95;73.07;101980.78;5008091;28;20038;-62
2022/12/06 10:15:32;;;;;;;7.22;4.50;;;;;;;7.85;72.91;101972.88;5026164;28;20033;-62
2022/12/06 10:18:20;;;;;;;7.50;5.18;;;;;;;7.84;73.26;101965.63;5027879;28;20037;-62
2022/12/06 10:21:16;;;;;;;7.18;5.25;;;;;;;7.94;74.22;101968.00;5031835;28;20026;-62
2022/12/06 10:24:06;;;;;;;7.35;5.07;;;;;;;8.05;74.08;101965.47;5031577;28;20038;-62
2022/12/06 10:26:48;;;;;;;6.82;5.00;;;;;;;8.15;73.69;101964.22;5030784;28;20034;-62
2022/12/06 10:29:22;;;;;;;9.77;5.60;;;;;;;8.11;71.96;101961.88;5031443;28;20030;-62
2022/12/06 10:31:57;;;;;;;8.63;5.57;;;;;;;8.07;72.97;101968.03;5030518;28;20037;-62
2022/12/06 10:34:35;;;;;;;6.68;5.05;;;;;;;8.09;73.01;101960.38;5028241;28;20033;-63
2022/12/06 10:37:30;;;;;;;8.43;4.97;;;;;;;8.21;73.03;101963.38;5031210;28;20053;-62
2022/12/06 10:40:20;;;;;;;8.63;5.03;;;;;;;8.32;72.63;101966.38;5030652;28;20041;-62
2022/12/06 10:42:59;;;;;;;7.75;5.00;;;;;;;8.42;72.63;101965.16;5031437;28;20048;-62
2022/12/06 10:48:31;;;;;;;8.10;5.10;;;;;;;8.57;72.21;101963.03;5030202;28;20040;-62
2022/12/06 10:51:20;;;;;;;7.13;4.75;;;;;;;8.64;71.81;101968.56;5020397;28;20073;-62
2022/12/06 10:53:56;;;;;;;8.95;4.40;;;;;;;8.60;71.34;101966.19;5011003;28;20034;-62
2022/12/06 10:56:40;;;;;;;5.05;4.55;;;;;;;8.67;71.88;101965.38;5010887;28;20069;-62
2022/12/06 10:59:38;;;;;;;5.68;4.70;;;;;;;8.69;71.16;101969.63;5011333;28;20427;-62
2022/12/06 11:02:22;;;;;;;7.03;4.32;;;;;;;8.70;70.51;101964.94;5010694;28;20033;-62
2022/12/06 11:04:48;;;;;;;7.40;4.35;;;;;;;8.67;69.78;101957.91;5015961;28;20025;-62
2022/12/06 11:07:19;;;;;;;7.13;3.72;;;;;;;8.63;70.29;101962.16;5029210;28;20045;-62
2022/12/06 11:09:50;;;;;;;11.38;4.53;;;;;;;8.63;69.80;101966.84;5029610;28;20026;-62
2022/12/06 11:12:32;;;;;;;4.90;3.75;;;;;;;8.64;71.05;101965.78;5026221;28;20703;-62
2022/12/06 11:15:26;;;;;;;9.15;3.67;;;;;;;8.63;70.98;101962.16;5025444;28;20100;-62
2022/12/06 11:17:58;;;;;;;7.55;3.42;;;;;;;8.57;69.93;101958.34;5013980;28;20401;-62
2022/12/06 11:20:27;;;;;;;5.22;3.65;;;;;;;8.57;69.61;101958.34;5022136;28;20034;-62
2022/12/06 11:23:08;;;;;;;4.75;3.28;;;;;;;8.62;70.36;101957.72;5030035;28;20036;-62
2022/12/06 11:25:44;;;;;;;4.38;3.25;;;;;;;8.59;69.66;101956.19;5030431;28;20040;-62
2022/12/06 11:28:20;;;;;;;4.95;3.40;;;;;;;8.60;69.87;101955.13;5030764;28;20033;-62
2022/12/06 11:30:51;;;;;;;4.55;3.00;;;;;;;8.64;69.87;101951.94;5029548;28;20041;-62
2022/12/06 11:33:20;;;;;;;7.05;3.03;;;;;;;8.57;69.02;101950.03;5026946;28;20037;-62
2022/12/06 11:35:48;;;;;;;6.57;3.08;;;;;;;8.52;68.28;101955.34;5028290;28;20109;-62
2022/12/06 11:38:15;;;;;;;4.20;2.97;;;;;;;8.51;68.17;101956.41;5030561;28;20052;-63
2022/12/06 11:40:44;;;;;;;3.13;2.65;;;;;;;8.51;67.91;101948.13;5030338;28;20033;-61
2022/12/06 11:43:16;;;;;;;3.33;2.55;;;;;;;8.51;67.43;101942.59;5029656;28;20413;-61
2022/12/06 11:45:44;;;;;;;5.23;2.70;;;;;;;8.50;67.52;101943.66;5030453;28;20033;-62
2022/12/06 11:48:22;;;;;;;5.97;2.80;;;;;;;8.46;68.13;101934.09;5028671;28;20337;-61
2022/12/06 11:50:49;;;;;;;4.82;2.40;;;;;;;8.45;67.17;101925.97;5026846;28;20037;-61
2022/12/06 11:53:29;;;;;;;6.28;3.30;;;;;;;8.44;68.40;101936.19;5030028;28;20025;-61
2022/12/06 11:56:02;;;;;;;5.47;2.70;;;;;;;8.40;66.84;101932.16;5028042;28;20064;-61
2022/12/06 11:58:42;;;;;;;6.40;2.40;;;;;;;8.39;66.80;101927.69;5028443;28;20052;-61
2022/12/06 12:01:13;;;;;;;4.72;3.03;;;;;;;8.33;66.78;101918.31;5031191;28;20396;-64
2022/12/06 12:03:42;;;;;;;5.53;3.05;;;;;;;8.32;67.31;101921.25;5033929;28;20033;-64
2022/12/06 12:06:25;;;;;;;4.85;2.80;;;;;;;8.33;67.03;101915.53;5020340;28;20052;-62
2022/12/06 12:09:03;;;;;;;6.47;2.65;;;;;;;8.31;67.75;101909.34;5028203;28;20091;-63